sensor_id;sensor_type;location;lat;lon;timestamp;temperature;humidity
18191;DHT22;47004;51.366;12.348;2023-04-03T00:00:11;2.70;99.90
18191;DHT22;47004;51.366;12.348;2023-04-03T00:02:13;2.70;99.90
18191;DHT22;47004;51.366;12.348;2023-04-03T00:04:16;2.60;99.90
18191;DHT22;47004;51.366;12.348;2023-04-03T00:06:20;2.60;99.90
18191;DHT22;47004;51.366;12.348;2023-04-03T00:08:22;2.60;99.90
18191;DHT22;47004;51.366;12.348;2023-04-03T00:10:24;2.60;99.90
18191;DHT22;47004;51.366;12.348;2023-04-03T00:12:26;2.60;99.90
18191;DHT22;47004;51.366;12.348;2023-04-03T00:14:28;2.50;99.90
18191;DHT22;47004;51.366;12.348;2023-04-03T00:16:30;2.50;99.90
18191;DHT22;47004;51.366;12.348;2023-04-03T00:18:32;2.50;99.90
18191;DHT22;47004;51.366;12.348;2023-04-03T00:20:34;2.50;99.90
18191;DHT22;47004;51.366;12.348;2023-04-03T00:22:38;2.50;99.90
18191;DHT22;47004;51.366;12.348;2023-04-03T00:24:40;2.50;99.90
18191;DHT22;47004;51.366;12.348;2023-04-03T00:26:42;2.40;99.90
18191;DHT22;47004;51.366;12.348;2023-04-03T00:28:44;2.40;99.90
18191;DHT22;47004;51.366;12.348;2023-04-03T00:30:46;2.40;99.90
18191;DHT22;47004;51.366;12.348;2023-04-03T00:32:48;2.40;99.90
18191;DHT22;47004;51.366;12.348;2023-04-03T00:34:50;2.40;99.90
18191;DHT22;47004;51.366;12.348;2023-04-03T00:36:52;2.40;99.90
18191;DHT22;47004;51.366;12.348;2023-04-03T00:38:56;2.30;99.90
18191;DHT22;47004;51.366;12.348;2023-04-03T00:40:58;2.30;99.90
18191;DHT22;47004;51.366;12.348;2023-04-03T00:43:00;2.50;99.90
18191;DHT22;47004;51.366;12.348;2023-04-03T00:45:29;2.30;99.90
18191;DHT22;47004;51.366;12.348;2023-04-03T00:47:31;2.30;99.90
18191;DHT22;47004;51.366;12.348;2023-04-03T00:49:34;2.20;99.90
18191;DHT22;47004;51.366;12.348;2023-04-03T00:51:37;2.20;99.90
18191;DHT22;47004;51.366;12.348;2023-04-03T00:53:41;2.60;99.90
18191;DHT22;47004;51.366;12.348;2023-04-03T00:55:47;2.10;99.90
18191;DHT22;47004;51.366;12.348;2023-04-03T00:57:49;2.10;99.90
18191;DHT22;47004;51.366;12.348;2023-04-03T00:59:55;2.10;99.90
18191;DHT22;47004;51.366;12.348;2023-04-03T01:01:59;2.10;99.90
18191;DHT22;47004;51.366;12.348;2023-04-03T01:04:03;2.10;99.90
18191;DHT22;47004;51.366;12.348;2023-04-03T01:06:06;2.00;99.90
18191;DHT22;47004;51.366;12.348;2023-04-03T01:08:08;2.00;99.90
18191;DHT22;47004;51.366;12.348;2023-04-03T01:10:12;1.90;99.90
18191;DHT22;47004;51.366;12.348;2023-04-03T01:12:19;1.90;99.90
18191;DHT22;47004;51.366;12.348;2023-04-03T01:14:21;1.90;99.90
18191;DHT22;47004;51.366;12.348;2023-04-03T01:16:23;1.80;99.90
18191;DHT22;47004;51.366;12.348;2023-04-03T01:18:25;1.80;99.90
18191;DHT22;47004;51.366;12.348;2023-04-03T01:23:08;1.70;99.90
18191;DHT22;47004;51.366;12.348;2023-04-03T01:25:13;1.70;99.90
18191;DHT22;47004;51.366;12.348;2023-04-03T01:27:16;1.70;99.90
18191;DHT22;47004;51.366;12.348;2023-04-03T01:29:18;1.70;99.90
18191;DHT22;47004;51.366;12.348;2023-04-03T01:31:24;1.60;99.90
18191;DHT22;47004;51.366;12.348;2023-04-03T01:33:31;1.60;99.90
18191;DHT22;47004;51.366;12.348;2023-04-03T01:35:33;1.60;99.90
18191;DHT22;47004;51.366;12.348;2023-04-03T01:37:34;1.60;99.90
18191;DHT22;47004;51.366;12.348;2023-04-03T01:39:36;1.60;99.90
18191;DHT22;47004;51.366;12.348;2023-04-03T01:41:38;1.60;99.90
18191;DHT22;47004;51.366;12.348;2023-04-03T01:43:40;1.50;99.90
18191;DHT22;47004;51.366;12.348;2023-04-03T01:45:42;1.50;99.90
18191;DHT22;47004;51.366;12.348;2023-04-03T01:47:44;1.40;99.90
18191;DHT22;47004;51.366;12.348;2023-04-03T01:49:47;1.40;99.90
18191;DHT22;47004;51.366;12.348;2023-04-03T01:51:49;1.50;99.90
18191;DHT22;47004;51.366;12.348;2023-04-03T01:53:51;1.30;99.90
18191;DHT22;47004;51.366;12.348;2023-04-03T01:55:53;1.40;99.90
18191;DHT22;47004;51.366;12.348;2023-04-03T01:57:55;1.30;99.90
18191;DHT22;47004;51.366;12.348;2023-04-03T01:59:57;1.30;99.90
18191;DHT22;47004;51.366;12.348;2023-04-03T02:01:58;1.30;99.90
18191;DHT22;47004;51.366;12.348;2023-04-03T02:04:00;1.30;99.90
18191;DHT22;47004;51.366;12.348;2023-04-03T02:06:04;1.20;99.90
18191;DHT22;47004;51.366;12.348;2023-04-03T02:08:06;1.20;99.90
18191;DHT22;47004;51.366;12.348;2023-04-03T02:10:08;1.20;99.90
18191;DHT22;47004;51.366;12.348;2023-04-03T02:12:10;1.20;99.90
18191;DHT22;47004;51.366;12.348;2023-04-03T02:14:12;1.20;99.90
18191;DHT22;47004;51.366;12.348;2023-04-03T02:16:14;1.20;99.90
18191;DHT22;47004;51.366;12.348;2023-04-03T02:18:17;1.20;99.90
18191;DHT22;47004;51.366;12.348;2023-04-03T02:20:19;1.20;99.90
18191;DHT22;47004;51.366;12.348;2023-04-03T02:22:22;1.10;99.90
18191;DHT22;47004;51.366;12.348;2023-04-03T02:24:24;1.20;99.90
18191;DHT22;47004;51.366;12.348;2023-04-03T02:26:26;1.10;99.90
18191;DHT22;47004;51.366;12.348;2023-04-03T02:28:28;1.10;99.90
18191;DHT22;47004;51.366;12.348;2023-04-03T02:30:30;1.30;99.90
18191;DHT22;47004;51.366;12.348;2023-04-03T02:32:32;1.10;99.90
18191;DHT22;47004;51.366;12.348;2023-04-03T02:34:34;1.00;99.90
18191;DHT22;47004;51.366;12.348;2023-04-03T02:36:36;1.00;99.90
18191;DHT22;47004;51.366;12.348;2023-04-03T02:38:39;1.00;99.90
18191;DHT22;47004;51.366;12.348;2023-04-03T02:40:41;1.00;99.90
18191;DHT22;47004;51.366;12.348;2023-04-03T02:42:43;1.00;99.90
18191;DHT22;47004;51.366;12.348;2023-04-03T02:44:45;1.00;99.90
18191;DHT22;47004;51.366;12.348;2023-04-03T02:46:47;0.90;99.90
18191;DHT22;47004;51.366;12.348;2023-04-03T02:48:49;0.90;99.90
18191;DHT22;47004;51.366;12.348;2023-04-03T02:50:51;0.90;99.90
18191;DHT22;47004;51.366;12.348;2023-04-03T02:52:53;0.80;99.90
18191;DHT22;47004;51.366;12.348;2023-04-03T02:54:56;0.80;99.90
18191;DHT22;47004;51.366;12.348;2023-04-03T02:56:58;0.80;99.90
18191;DHT22;47004;51.366;12.348;2023-04-03T02:59:00;0.80;99.90
18191;DHT22;47004;51.366;12.348;2023-04-03T03:01:02;0.70;99.90
18191;DHT22;47004;51.366;12.348;2023-04-03T03:03:04;0.70;99.90
18191;DHT22;47004;51.366;12.348;2023-04-03T03:05:07;0.70;99.90
18191;DHT22;47004;51.366;12.348;2023-04-03T03:07:09;0.70;99.90
18191;DHT22;47004;51.366;12.348;2023-04-03T03:09:11;0.70;99.90
18191;DHT22;47004;51.366;12.348;2023-04-03T03:11:15;0.60;99.90
18191;DHT22;47004;51.366;12.348;2023-04-03T03:13:17;0.60;99.90
18191;DHT22;47004;51.366;12.348;2023-04-03T03:15:18;0.50;99.90
18191;DHT22;47004;51.366;12.348;2023-04-03T03:17:20;0.50;99.90
18191;DHT22;47004;51.366;12.348;2023-04-03T03:19:22;0.50;99.90
18191;DHT22;47004;51.366;12.348;2023-04-03T03:21:24;0.50;99.90
18191;DHT22;47004;51.366;12.348;2023-04-03T03:23:28;0.50;99.90
18191;DHT22;47004;51.366;12.348;2023-04-03T03:25:30;0.40;99.90
18191;DHT22;47004;51.366;12.348;2023-04-03T03:27:33;0.40;99.90
18191;DHT22;47004;51.366;12.348;2023-04-03T03:29:37;0.30;99.90
18191;DHT22;47004;51.366;12.348;2023-04-03T03:31:39;0.30;99.90
18191;DHT22;47004;51.366;12.348;2023-04-03T03:33:41;0.30;99.90
18191;DHT22;47004;51.366;12.348;2023-04-03T03:35:43;0.30;99.90
18191;DHT22;47004;51.366;12.348;2023-04-03T03:37:44;0.30;99.90
18191;DHT22;47004;51.366;12.348;2023-04-03T03:39:46;0.20;99.90
18191;DHT22;47004;51.366;12.348;2023-04-03T03:41:48;0.20;99.90
18191;DHT22;47004;51.366;12.348;2023-04-03T03:43:52;0.20;99.90
18191;DHT22;47004;51.366;12.348;2023-04-03T03:45:54;0.10;99.90
18191;DHT22;47004;51.366;12.348;2023-04-03T03:47:56;0.10;99.90
18191;DHT22;47004;51.366;12.348;2023-04-03T03:50:01;0.10;99.90
18191;DHT22;47004;51.366;12.348;2023-04-03T03:52:03;0.00;99.90
18191;DHT22;47004;51.366;12.348;2023-04-03T03:54:05;0.00;99.90
18191;DHT22;47004;51.366;12.348;2023-04-03T03:56:07;0.00;99.90
18191;DHT22;47004;51.366;12.348;2023-04-03T03:58:09;0.00;99.90
18191;DHT22;47004;51.366;12.348;2023-04-03T04:00:13;0.00;99.90
18191;DHT22;47004;51.366;12.348;2023-04-03T04:02:18;-0.10;99.90
18191;DHT22;47004;51.366;12.348;2023-04-03T04:04:20;-0.10;99.90
18191;DHT22;47004;51.366;12.348;2023-04-03T04:06:22;-0.10;99.90
18191;DHT22;47004;51.366;12.348;2023-04-03T04:08:24;-0.10;99.90
18191;DHT22;47004;51.366;12.348;2023-04-03T04:10:26;-0.20;99.90
18191;DHT22;47004;51.366;12.348;2023-04-03T04:12:28;-0.20;99.90
18191;DHT22;47004;51.366;12.348;2023-04-03T04:14:30;-0.20;99.90
18191;DHT22;47004;51.366;12.348;2023-04-03T04:16:33;-0.30;99.90
18191;DHT22;47004;51.366;12.348;2023-04-03T04:18:35;-0.30;99.90
18191;DHT22;47004;51.366;12.348;2023-04-03T04:20:37;-0.30;99.90
18191;DHT22;47004;51.366;12.348;2023-04-03T04:22:39;-0.30;99.90
18191;DHT22;47004;51.366;12.348;2023-04-03T04:24:41;-0.40;99.90
18191;DHT22;47004;51.366;12.348;2023-04-03T04:26:43;-0.30;99.90
18191;DHT22;47004;51.366;12.348;2023-04-03T04:28:45;-0.40;99.90
18191;DHT22;47004;51.366;12.348;2023-04-03T04:30:46;-0.40;99.90
18191;DHT22;47004;51.366;12.348;2023-04-03T04:32:50;-0.50;99.90
18191;DHT22;47004;51.366;12.348;2023-04-03T04:34:52;-0.50;99.90
18191;DHT22;47004;51.366;12.348;2023-04-03T04:36:54;-0.50;99.90
18191;DHT22;47004;51.366;12.348;2023-04-03T04:38:56;-0.50;99.90
18191;DHT22;47004;51.366;12.348;2023-04-03T04:40:59;-0.50;99.90
18191;DHT22;47004;51.366;12.348;2023-04-03T04:43:00;-0.60;99.90
18191;DHT22;47004;51.366;12.348;2023-04-03T04:45:03;-0.60;99.90
18191;DHT22;47004;51.366;12.348;2023-04-03T04:47:05;-0.60;99.90
18191;DHT22;47004;51.366;12.348;2023-04-03T04:49:08;-0.60;99.90
18191;DHT22;47004;51.366;12.348;2023-04-03T04:51:10;-0.60;99.90
18191;DHT22;47004;51.366;12.348;2023-04-03T04:53:12;-0.60;99.90
18191;DHT22;47004;51.366;12.348;2023-04-03T04:55:15;-0.70;99.90
18191;DHT22;47004;51.366;12.348;2023-04-03T04:57:16;-0.70;99.90
18191;DHT22;47004;51.366;12.348;2023-04-03T04:59:18;-0.70;99.90
18191;DHT22;47004;51.366;12.348;2023-04-03T05:01:20;-0.70;99.90
18191;DHT22;47004;51.366;12.348;2023-04-03T05:03:22;-0.70;99.90
18191;DHT22;47004;51.366;12.348;2023-04-03T05:05:25;-0.70;99.90
18191;DHT22;47004;51.366;12.348;2023-04-03T05:07:27;-0.80;99.90
18191;DHT22;47004;51.366;12.348;2023-04-03T05:09:29;-0.60;99.90
18191;DHT22;47004;51.366;12.348;2023-04-03T05:11:31;-0.80;99.90
18191;DHT22;47004;51.366;12.348;2023-04-03T05:13:33;-0.80;99.90
18191;DHT22;47004;51.366;12.348;2023-04-03T05:15:35;-0.80;99.90
18191;DHT22;47004;51.366;12.348;2023-04-03T05:17:37;-0.80;99.90
18191;DHT22;47004;51.366;12.348;2023-04-03T05:19:39;-0.80;99.90
18191;DHT22;47004;51.366;12.348;2023-04-03T05:21:42;-0.90;99.90
18191;DHT22;47004;51.366;12.348;2023-04-03T05:23:44;-0.90;99.90
18191;DHT22;47004;51.366;12.348;2023-04-03T05:25:46;-0.90;99.90
18191;DHT22;47004;51.366;12.348;2023-04-03T05:27:49;-0.90;99.90
18191;DHT22;47004;51.366;12.348;2023-04-03T05:29:53;-0.90;99.90
18191;DHT22;47004;51.366;12.348;2023-04-03T05:31:55;-0.90;99.90
18191;DHT22;47004;51.366;12.348;2023-04-03T05:33:57;-0.90;99.90
18191;DHT22;47004;51.366;12.348;2023-04-03T05:36:02;-0.90;99.90
18191;DHT22;47004;51.366;12.348;2023-04-03T05:38:05;-0.90;99.90
18191;DHT22;47004;51.366;12.348;2023-04-03T05:40:08;-0.90;99.90
18191;DHT22;47004;51.366;12.348;2023-04-03T05:42:11;-0.90;99.90
18191;DHT22;47004;51.366;12.348;2023-04-03T05:44:13;-0.90;99.90
18191;DHT22;47004;51.366;12.348;2023-04-03T05:46:16;-0.90;99.90
18191;DHT22;47004;51.366;12.348;2023-04-03T05:48:18;-0.80;99.90
18191;DHT22;47004;51.366;12.348;2023-04-03T05:50:20;-0.90;99.90
18191;DHT22;47004;51.366;12.348;2023-04-03T05:52:25;-0.90;99.90
18191;DHT22;47004;51.366;12.348;2023-04-03T05:54:29;-0.90;99.90
18191;DHT22;47004;51.366;12.348;2023-04-03T05:56:31;-0.80;99.90
18191;DHT22;47004;51.366;12.348;2023-04-03T05:58:33;-0.80;99.90
18191;DHT22;47004;51.366;12.348;2023-04-03T06:00:35;-0.80;99.90
18191;DHT22;47004;51.366;12.348;2023-04-03T06:02:37;-0.80;99.90
18191;DHT22;47004;51.366;12.348;2023-04-03T06:04:39;-0.80;99.90
18191;DHT22;47004;51.366;12.348;2023-04-03T06:06:46;-0.80;99.90
18191;DHT22;47004;51.366;12.348;2023-04-03T06:08:48;-0.70;99.90
18191;DHT22;47004;51.366;12.348;2023-04-03T06:10:52;-0.70;99.90
18191;DHT22;47004;51.366;12.348;2023-04-03T06:12:53;-0.70;99.90
18191;DHT22;47004;51.366;12.348;2023-04-03T06:14:55;-0.70;99.90
18191;DHT22;47004;51.366;12.348;2023-04-03T06:16:57;-0.70;99.90
18191;DHT22;47004;51.366;12.348;2023-04-03T06:18:59;-0.70;99.90
18191;DHT22;47004;51.366;12.348;2023-04-03T06:21:01;-0.60;99.90
18191;DHT22;47004;51.366;12.348;2023-04-03T06:23:03;-0.60;99.90
18191;DHT22;47004;51.366;12.348;2023-04-03T06:25:06;-0.60;99.90
18191;DHT22;47004;51.366;12.348;2023-04-03T06:27:11;-0.50;99.90
18191;DHT22;47004;51.366;12.348;2023-04-03T06:29:13;-0.70;99.90
18191;DHT22;47004;51.366;12.348;2023-04-03T06:31:15;-0.50;99.90
18191;DHT22;47004;51.366;12.348;2023-04-03T06:33:17;-0.50;99.90
18191;DHT22;47004;51.366;12.348;2023-04-03T06:35:19;-0.50;99.90
18191;DHT22;47004;51.366;12.348;2023-04-03T06:37:22;-0.50;99.90
18191;DHT22;47004;51.366;12.348;2023-04-03T06:39:26;-0.40;99.90
18191;DHT22;47004;51.366;12.348;2023-04-03T06:41:28;-0.40;99.90
18191;DHT22;47004;51.366;12.348;2023-04-03T06:43:32;-0.40;99.90
18191;DHT22;47004;51.366;12.348;2023-04-03T06:45:34;-0.40;99.90
18191;DHT22;47004;51.366;12.348;2023-04-03T06:47:36;-0.40;99.90
18191;DHT22;47004;51.366;12.348;2023-04-03T06:49:38;-0.30;99.90
18191;DHT22;47004;51.366;12.348;2023-04-03T06:51:40;-0.30;99.90
18191;DHT22;47004;51.366;12.348;2023-04-03T06:53:42;-0.30;99.90
18191;DHT22;47004;51.366;12.348;2023-04-03T06:55:44;-0.20;99.90
18191;DHT22;47004;51.366;12.348;2023-04-03T06:57:47;-0.20;99.90
18191;DHT22;47004;51.366;12.348;2023-04-03T06:59:50;-0.20;99.90
18191;DHT22;47004;51.366;12.348;2023-04-03T07:01:53;-0.10;99.90
18191;DHT22;47004;51.366;12.348;2023-04-03T07:03:55;-0.10;99.90
18191;DHT22;47004;51.366;12.348;2023-04-03T07:05:57;-0.10;99.90
18191;DHT22;47004;51.366;12.348;2023-04-03T07:07:59;-0.10;99.90
18191;DHT22;47004;51.366;12.348;2023-04-03T07:10:01;0.00;99.90
18191;DHT22;47004;51.366;12.348;2023-04-03T07:12:03;0.00;99.90
18191;DHT22;47004;51.366;12.348;2023-04-03T07:14:05;0.00;99.90
18191;DHT22;47004;51.366;12.348;2023-04-03T07:16:09;0.10;99.90
18191;DHT22;47004;51.366;12.348;2023-04-03T07:18:12;0.10;99.90
18191;DHT22;47004;51.366;12.348;2023-04-03T07:20:13;0.10;99.90
18191;DHT22;47004;51.366;12.348;2023-04-03T07:22:16;0.20;99.90
18191;DHT22;47004;51.366;12.348;2023-04-03T07:24:18;0.20;99.90
18191;DHT22;47004;51.366;12.348;2023-04-03T07:26:21;0.30;99.90
18191;DHT22;47004;51.366;12.348;2023-04-03T07:28:23;0.30;99.90
18191;DHT22;47004;51.366;12.348;2023-04-03T07:30:26;0.40;99.90
18191;DHT22;47004;51.366;12.348;2023-04-03T07:32:30;0.40;99.90
18191;DHT22;47004;51.366;12.348;2023-04-03T07:34:32;0.40;99.90
18191;DHT22;47004;51.366;12.348;2023-04-03T07:36:34;0.50;99.90
18191;DHT22;47004;51.366;12.348;2023-04-03T07:38:37;0.50;99.90
18191;DHT22;47004;51.366;12.348;2023-04-03T07:40:39;0.60;99.90
18191;DHT22;47004;51.366;12.348;2023-04-03T07:42:41;0.60;99.90
18191;DHT22;47004;51.366;12.348;2023-04-03T07:44:44;0.70;99.90
18191;DHT22;47004;51.366;12.348;2023-04-03T07:46:46;0.70;99.90
18191;DHT22;47004;51.366;12.348;2023-04-03T07:48:50;0.80;99.90
18191;DHT22;47004;51.366;12.348;2023-04-03T07:50:52;0.80;99.90
18191;DHT22;47004;51.366;12.348;2023-04-03T07:52:54;0.90;99.90
18191;DHT22;47004;51.366;12.348;2023-04-03T07:54:58;1.00;99.90
18191;DHT22;47004;51.366;12.348;2023-04-03T07:57:00;1.10;99.90
18191;DHT22;47004;51.366;12.348;2023-04-03T07:59:02;1.10;99.90
18191;DHT22;47004;51.366;12.348;2023-04-03T08:01:04;1.20;99.90
18191;DHT22;47004;51.366;12.348;2023-04-03T08:03:08;1.30;99.90
18191;DHT22;47004;51.366;12.348;2023-04-03T08:05:12;1.30;99.90
18191;DHT22;47004;51.366;12.348;2023-04-03T08:07:15;1.40;99.90
18191;DHT22;47004;51.366;12.348;2023-04-03T08:09:16;1.50;99.90
18191;DHT22;47004;51.366;12.348;2023-04-03T08:11:19;1.50;99.90
18191;DHT22;47004;51.366;12.348;2023-04-03T08:13:21;1.50;99.90
18191;DHT22;47004;51.366;12.348;2023-04-03T08:15:23;1.60;99.90
18191;DHT22;47004;51.366;12.348;2023-04-03T08:17:26;1.70;99.90
18191;DHT22;47004;51.366;12.348;2023-04-03T08:19:28;1.80;99.90
18191;DHT22;47004;51.366;12.348;2023-04-03T08:21:31;2.10;99.90
18191;DHT22;47004;51.366;12.348;2023-04-03T08:23:33;2.00;99.90
18191;DHT22;47004;51.366;12.348;2023-04-03T08:25:38;2.10;99.90
18191;DHT22;47004;51.366;12.348;2023-04-03T08:27:40;2.20;99.90
18191;DHT22;47004;51.366;12.348;2023-04-03T08:29:42;2.20;99.90
18191;DHT22;47004;51.366;12.348;2023-04-03T08:31:44;2.30;99.90
18191;DHT22;47004;51.366;12.348;2023-04-03T08:33:47;2.30;99.90
18191;DHT22;47004;51.366;12.348;2023-04-03T08:35:49;2.30;99.90
18191;DHT22;47004;51.366;12.348;2023-04-03T08:37:53;2.30;99.90
18191;DHT22;47004;51.366;12.348;2023-04-03T08:39:55;2.40;99.90
18191;DHT22;47004;51.366;12.348;2023-04-03T08:41:58;2.30;99.90
18191;DHT22;47004;51.366;12.348;2023-04-03T08:44:14;2.30;99.90
18191;DHT22;47004;51.366;12.348;2023-04-03T08:46:17;2.40;99.90
18191;DHT22;47004;51.366;12.348;2023-04-03T08:48:24;2.30;99.90
18191;DHT22;47004;51.366;12.348;2023-04-03T08:50:33;2.40;99.90
18191;DHT22;47004;51.366;12.348;2023-04-03T08:52:39;2.40;99.90
18191;DHT22;47004;51.366;12.348;2023-04-03T08:54:49;2.40;99.90
18191;DHT22;47004;51.366;12.348;2023-04-03T08:56:52;2.40;99.90
18191;DHT22;47004;51.366;12.348;2023-04-03T08:58:57;2.50;99.90
18191;DHT22;47004;51.366;12.348;2023-04-03T09:01:02;2.60;99.90
18191;DHT22;47004;51.366;12.348;2023-04-03T09:03:13;2.70;99.90
18191;DHT22;47004;51.366;12.348;2023-04-03T09:05:18;2.80;99.90
18191;DHT22;47004;51.366;12.348;2023-04-03T09:07:25;3.00;99.90
18191;DHT22;47004;51.366;12.348;2023-04-03T09:09:35;3.20;99.90
18191;DHT22;47004;51.366;12.348;2023-04-03T09:11:47;3.30;99.90
18191;DHT22;47004;51.366;12.348;2023-04-03T09:13:57;3.50;99.90
18191;DHT22;47004;51.366;12.348;2023-04-03T09:16:02;3.60;99.90
18191;DHT22;47004;51.366;12.348;2023-04-03T09:18:13;3.70;99.90
18191;DHT22;47004;51.366;12.348;2023-04-03T09:20:24;3.80;99.90
18191;DHT22;47004;51.366;12.348;2023-04-03T09:22:31;3.80;99.90
18191;DHT22;47004;51.366;12.348;2023-04-03T09:24:34;3.90;99.90
18191;DHT22;47004;51.366;12.348;2023-04-03T09:26:41;3.80;99.90
18191;DHT22;47004;51.366;12.348;2023-04-03T09:28:46;3.80;99.90
18191;DHT22;47004;51.366;12.348;2023-04-03T09:30:48;3.80;99.90
18191;DHT22;47004;51.366;12.348;2023-04-03T09:32:52;3.80;99.90
18191;DHT22;47004;51.366;12.348;2023-04-03T09:34:57;3.80;99.90
18191;DHT22;47004;51.366;12.348;2023-04-03T09:37:01;3.80;99.90
18191;DHT22;47004;51.366;12.348;2023-04-03T09:39:11;3.70;99.90
18191;DHT22;47004;51.366;12.348;2023-04-03T09:41:21;3.70;99.90
18191;DHT22;47004;51.366;12.348;2023-04-03T09:43:29;3.80;99.90
18191;DHT22;47004;51.366;12.348;2023-04-03T09:45:34;3.80;99.90
18191;DHT22;47004;51.366;12.348;2023-04-03T09:47:36;3.90;99.90
18191;DHT22;47004;51.366;12.348;2023-04-03T09:49:39;4.00;99.90
18191;DHT22;47004;51.366;12.348;2023-04-03T09:51:41;4.00;99.90
18191;DHT22;47004;51.366;12.348;2023-04-03T09:53:44;4.10;99.90
18191;DHT22;47004;51.366;12.348;2023-04-03T09:55:46;4.20;99.90
18191;DHT22;47004;51.366;12.348;2023-04-03T09:57:50;4.20;99.90
18191;DHT22;47004;51.366;12.348;2023-04-03T09:59:57;4.20;99.90
18191;DHT22;47004;51.366;12.348;2023-04-03T10:02:03;4.20;99.90
18191;DHT22;47004;51.366;12.348;2023-04-03T10:04:08;4.20;99.90
18191;DHT22;47004;51.366;12.348;2023-04-03T10:06:22;4.30;99.90
18191;DHT22;47004;51.366;12.348;2023-04-03T10:08:29;4.40;99.90
18191;DHT22;47004;51.366;12.348;2023-04-03T10:10:31;4.50;99.90
18191;DHT22;47004;51.366;12.348;2023-04-03T10:12:33;4.60;99.90
18191;DHT22;47004;51.366;12.348;2023-04-03T10:14:36;4.70;99.90
18191;DHT22;47004;51.366;12.348;2023-04-03T10:16:43;4.70;99.90
18191;DHT22;47004;51.366;12.348;2023-04-03T10:18:53;4.80;99.90
18191;DHT22;47004;51.366;12.348;2023-04-03T10:21:02;4.80;99.90
18191;DHT22;47004;51.366;12.348;2023-04-03T10:23:20;5.00;99.90
18191;DHT22;47004;51.366;12.348;2023-04-03T10:25:28;5.00;99.90
18191;DHT22;47004;51.366;12.348;2023-04-03T10:27:42;5.10;99.90
18191;DHT22;47004;51.366;12.348;2023-04-03T10:29:51;5.20;99.90
18191;DHT22;47004;51.366;12.348;2023-04-03T10:32:01;5.20;99.90
18191;DHT22;47004;51.366;12.348;2023-04-03T10:34:12;5.30;99.90
18191;DHT22;47004;51.366;12.348;2023-04-03T10:36:26;5.60;99.90
18191;DHT22;47004;51.366;12.348;2023-04-03T10:38:33;5.80;99.90
18191;DHT22;47004;51.366;12.348;2023-04-03T10:40:44;5.90;99.90
18191;DHT22;47004;51.366;12.348;2023-04-03T10:42:52;6.00;99.90
18191;DHT22;47004;51.366;12.348;2023-04-03T10:45:08;6.00;99.90
18191;DHT22;47004;51.366;12.348;2023-04-03T10:47:20;6.20;99.90
18191;DHT22;47004;51.366;12.348;2023-04-03T10:49:43;6.30;99.90
18191;DHT22;47004;51.366;12.348;2023-04-03T10:51:55;6.30;99.90
18191;DHT22;47004;51.366;12.348;2023-04-03T10:54:04;6.40;99.90
18191;DHT22;47004;51.366;12.348;2023-04-03T10:56:13;6.40;99.90
18191;DHT22;47004;51.366;12.348;2023-04-03T10:58:21;6.40;99.90
18191;DHT22;47004;51.366;12.348;2023-04-03T11:00:31;6.50;99.90
18191;DHT22;47004;51.366;12.348;2023-04-03T11:02:48;6.50;99.90
18191;DHT22;47004;51.366;12.348;2023-04-03T11:04:53;6.60;99.90
18191;DHT22;47004;51.366;12.348;2023-04-03T11:07:01;6.70;99.90
18191;DHT22;47004;51.366;12.348;2023-04-03T11:09:09;6.70;99.90
18191;DHT22;47004;51.366;12.348;2023-04-03T11:11:15;6.80;99.90
18191;DHT22;47004;51.366;12.348;2023-04-03T11:13:22;6.80;99.90
18191;DHT22;47004;51.366;12.348;2023-04-03T11:15:27;6.90;99.90
18191;DHT22;47004;51.366;12.348;2023-04-03T11:17:34;7.00;99.90
18191;DHT22;47004;51.366;12.348;2023-04-03T11:19:42;7.10;99.90
18191;DHT22;47004;51.366;12.348;2023-04-03T11:21:52;7.20;99.90
18191;DHT22;47004;51.366;12.348;2023-04-03T11:23:58;7.20;99.90
18191;DHT22;47004;51.366;12.348;2023-04-03T11:26:08;7.20;99.90
18191;DHT22;47004;51.366;12.348;2023-04-03T11:28:13;7.20;99.90
18191;DHT22;47004;51.366;12.348;2023-04-03T11:30:18;7.30;99.90
18191;DHT22;47004;51.366;12.348;2023-04-03T11:32:36;7.30;99.90
18191;DHT22;47004;51.366;12.348;2023-04-03T11:34:46;7.40;99.90
18191;DHT22;47004;51.366;12.348;2023-04-03T11:36:52;7.60;99.90
18191;DHT22;47004;51.366;12.348;2023-04-03T11:38:58;7.70;99.90
18191;DHT22;47004;51.366;12.348;2023-04-03T11:41:01;7.80;99.90
18191;DHT22;47004;51.366;12.348;2023-04-03T11:43:07;7.90;99.90
18191;DHT22;47004;51.366;12.348;2023-04-03T11:45:22;8.00;99.90
18191;DHT22;47004;51.366;12.348;2023-04-03T11:47:47;8.10;99.90
18191;DHT22;47004;51.366;12.348;2023-04-03T11:50:00;8.10;99.90
18191;DHT22;47004;51.366;12.348;2023-04-03T11:52:09;8.10;99.90
18191;DHT22;47004;51.366;12.348;2023-04-03T11:54:43;8.20;99.90
18191;DHT22;47004;51.366;12.348;2023-04-03T11:56:46;8.20;99.90
18191;DHT22;47004;51.366;12.348;2023-04-03T11:59:15;8.20;99.90
18191;DHT22;47004;51.366;12.348;2023-04-03T12:01:43;8.20;99.90
18191;DHT22;47004;51.366;12.348;2023-04-03T12:04:07;8.10;99.90
18191;DHT22;47004;51.366;12.348;2023-04-03T12:08:56;8.20;99.90
18191;DHT22;47004;51.366;12.348;2023-04-03T12:11:15;8.20;99.90
18191;DHT22;47004;51.366;12.348;2023-04-03T12:13:23;8.10;99.90
18191;DHT22;47004;51.366;12.348;2023-04-03T12:15:50;8.30;99.90
18191;DHT22;47004;51.366;12.348;2023-04-03T12:17:53;8.50;99.90
18191;DHT22;47004;51.366;12.348;2023-04-03T12:19:56;8.80;99.90
18191;DHT22;47004;51.366;12.348;2023-04-03T12:22:18;8.90;99.90
18191;DHT22;47004;51.366;12.348;2023-04-03T12:24:26;9.00;99.90
18191;DHT22;47004;51.366;12.348;2023-04-03T12:26:32;9.00;90.50
18191;DHT22;47004;51.366;12.348;2023-04-03T12:28:39;9.00;94.60
18191;DHT22;47004;51.366;12.348;2023-04-03T12:30:43;9.00;99.90
18191;DHT22;47004;51.366;12.348;2023-04-03T12:33:09;9.00;99.90
18191;DHT22;47004;51.366;12.348;2023-04-03T12:35:21;9.10;99.90
18191;DHT22;47004;51.366;12.348;2023-04-03T12:37:40;9.20;99.90
18191;DHT22;47004;51.366;12.348;2023-04-03T12:39:53;9.30;99.90
18191;DHT22;47004;51.366;12.348;2023-04-03T12:42:05;9.30;99.90
18191;DHT22;47004;51.366;12.348;2023-04-03T12:44:37;9.30;92.00
18191;DHT22;47004;51.366;12.348;2023-04-03T12:46:44;9.30;97.10
18191;DHT22;47004;51.366;12.348;2023-04-03T12:48:48;9.20;82.20
18191;DHT22;47004;51.366;12.348;2023-04-03T12:50:52;9.10;79.00
18191;DHT22;47004;51.366;12.348;2023-04-03T12:52:57;9.00;67.60
18191;DHT22;47004;51.366;12.348;2023-04-03T12:55:08;9.00;73.30
18191;DHT22;47004;51.366;12.348;2023-04-03T12:57:12;9.00;74.30
18191;DHT22;47004;51.366;12.348;2023-04-03T12:59:21;9.20;78.60
18191;DHT22;47004;51.366;12.348;2023-04-03T13:01:24;9.30;83.20
18191;DHT22;47004;51.366;12.348;2023-04-03T13:03:27;9.40;86.30
18191;DHT22;47004;51.366;12.348;2023-04-03T13:05:30;9.60;92.40
18191;DHT22;47004;51.366;12.348;2023-04-03T13:07:34;9.60;75.80
18191;DHT22;47004;51.366;12.348;2023-04-03T13:09:38;9.70;99.90